Time;durP1;ratioP1;P1;durP2;ratioP2;P2;SDS_P1;SDS_P2;PMS_P1;PMS_P2;Temp;Humidity;BMP_temperature;BMP_pressure;BME280_temperature;BME280_humidity;BME280_pressure;Samples;Min_cycle;Max_cycle;Signal;HPM_P1;HPM_P2
2023/10/13 00:19:24;;;;;;;10.98;7.72;;;18.60;99.90;;;;;;4592257;19;20011;-73
2023/10/13 00:20:59;;;;;;;11.55;7.60;;;18.50;99.90;;;;;;4593098;19;20034;-73
2023/10/13 00:22:34;;;;;;;12.27;7.25;;;18.50;99.90;;;;;;4591913;19;20058;-73
2023/10/13 00:24:13;;;;;;;12.60;8.18;;;18.50;99.90;;;;;;4592672;19;20006;-73
2023/10/13 00:26:09;;;;;;;13.73;8.25;;;18.50;99.90;;;;;;4592162;19;20013;-73
2023/10/13 00:27:44;;;;;;;16.13;8.65;;;18.50;99.90;;;;;;4593110;19;20006;-73
2023/10/13 00:29:28;;;;;;;13.65;7.72;;;18.50;99.90;;;;;;4591382;19;20011;-73
2023/10/13 00:31:10;;;;;;;11.93;8.07;;;18.50;99.90;;;;;;4591855;19;20151;-73
2023/10/13 00:32:51;;;;;;;11.82;7.78;;;18.50;99.90;;;;;;4592889;19;19998;-73
2023/10/13 00:34:29;;;;;;;13.00;8.10;;;18.50;99.90;;;;;;4592040;19;20483;-73
2023/10/13 00:36:04;;;;;;;12.82;8.35;;;18.50;99.90;;;;;;4592771;19;20002;-72
2023/10/13 00:37:45;;;;;;;13.88;7.35;;;18.50;99.90;;;;;;4592988;19;20010;-73
2023/10/13 00:39:22;;;;;;;11.63;7.22;;;18.50;99.90;;;;;;4593258;19;20011;-73
2023/10/13 00:41:03;;;;;;;11.07;7.43;;;18.50;99.90;;;;;;4591861;19;20010;-73
2023/10/13 00:42:50;;;;;;;13.35;8.13;;;18.50;99.90;;;;;;4592797;19;20090;-73
2023/10/13 00:44:44;;;;;;;12.63;8.50;;;18.50;99.90;;;;;;4590860;19;20318;-73
2023/10/13 00:46:19;;;;;;;;;;;18.50;99.90;;;;;;4593789;19;20060;-76
2023/10/13 00:47:58;;;;;;;13.50;7.97;;;18.50;99.90;;;;;;4592503;19;19919;-73
2023/10/13 00:49:39;;;;;;;13.48;8.52;;;18.50;99.90;;;;;;4591497;19;20014;-73
2023/10/13 00:51:18;;;;;;;12.60;7.78;;;18.50;99.90;;;;;;4591653;19;20456;-73
2023/10/13 00:52:53;;;;;;;11.85;7.60;;;18.50;99.90;;;;;;4592389;19;20010;-73
2023/10/13 00:54:28;;;;;;;14.63;8.30;;;18.60;99.90;;;;;;4592657;19;20494;-73
2023/10/13 00:56:18;;;;;;;12.07;8.57;;;18.60;99.90;;;;;;4592777;19;20002;-73
2023/10/13 00:57:57;;;;;;;12.43;7.75;;;18.60;99.90;;;;;;4591167;19;20007;-73
2023/10/13 00:59:36;;;;;;;14.23;8.40;;;18.60;99.90;;;;;;4592585;19;20013;-73
2023/10/13 01:01:17;;;;;;;12.20;8.30;;;18.60;99.90;;;;;;4591216;19;20013;-73
2023/10/13 01:03:06;;;;;;;15.07;9.33;;;18.60;99.90;;;;;;4591269;19;20010;-72
2023/10/13 01:04:42;;;;;;;13.38;9.05;;;18.60;99.90;;;;;;4590259;19;20393;-73
2023/10/13 01:06:19;;;;;;;13.32;8.63;;;18.60;99.90;;;;;;4591333;19;20012;-73
2023/10/13 01:07:54;;;;;;;13.85;9.13;;;18.60;99.90;;;;;;4590885;19;20030;-73
2023/10/13 01:09:32;;;;;;;14.88;9.45;;;18.60;99.90;;;;;;4592093;19;20006;-73
2023/10/13 01:11:07;;;;;;;13.93;8.65;;;18.60;99.90;;;;;;4590755;19;20011;-73
2023/10/13 01:12:45;;;;;;;12.77;8.57;;;18.60;99.90;;;;;;4591818;19;20005;-73
2023/10/13 01:14:20;;;;;;;15.50;9.02;;;18.60;99.90;;;;;;4592229;19;20027;-73
2023/10/13 01:15:54;;;;;;;13.43;8.75;;;18.60;99.90;;;;;;4590895;19;20422;-73
2023/10/13 01:17:31;;;;;;;12.75;9.00;;;18.60;99.90;;;;;;4591684;19;20014;-73
2023/10/13 01:19:06;;;;;;;11.07;8.00;;;18.60;99.90;;;;;;4590718;19;20434;-73
2023/10/13 01:20:52;;;;;;;12.52;8.68;;;18.70;99.90;;;;;;4592098;19;20024;-73
2023/10/13 01:22:28;;;;;;;15.65;9.32;;;18.70;99.90;;;;;;4590842;19;20011;-73
2023/10/13 01:24:07;;;;;;;13.02;8.40;;;18.70;99.90;;;;;;4590721;19;20085;-73
2023/10/13 01:25:42;;;;;;;11.18;8.30;;;18.80;99.90;;;;;;4592152;19;20023;-73
2023/10/13 01:27:17;;;;;;;12.25;7.43;;;18.80;99.90;;;;;;4592017;19;20003;-73
2023/10/13 01:29:02;;;;;;;12.35;8.50;;;18.80;99.90;;;;;;4591102;19;20014;-73
2023/10/13 01:30:38;;;;;;;11.52;7.45;;;18.80;99.90;;;;;;4592024;19;20007;-73
2023/10/13 01:32:13;;;;;;;12.88;8.15;;;18.80;99.90;;;;;;4592076;19;20023;-73
2023/10/13 01:33:51;;;;;;;13.13;7.82;;;18.90;99.90;;;;;;4592269;19;20007;-73
2023/10/13 01:35:36;;;;;;;13.48;7.85;;;18.90;99.90;;;;;;4590575;19;20055;-73
2023/10/13 01:37:11;;;;;;;12.98;8.25;;;18.90;99.90;;;;;;4591992;19;20088;-73
2023/10/13 01:38:47;;;;;;;10.90;7.30;;;18.90;99.80;;;;;;4591049;19;20006;-73
2023/10/13 01:40:28;;;;;;;13.68;8.73;;;18.90;99.80;;;;;;4594835;19;20019;-73
2023/10/13 01:42:06;;;;;;;11.65;8.25;;;18.80;99.80;;;;;;4595551;19;20041;-73
2023/10/13 01:43:41;;;;;;;10.43;7.47;;;18.80;99.70;;;;;;4596448;19;20014;-73
2023/10/13 01:45:19;;;;;;;11.75;8.23;;;18.90;99.70;;;;;;4596500;19;20002;-73
2023/10/13 01:46:53;;;;;;;12.38;8.00;;;18.80;99.60;;;;;;4595479;19;20018;-73
2023/10/13 01:48:32;;;;;;;11.57;7.72;;;18.80;99.60;;;;;;4595423;19;20002;-73
2023/10/13 01:50:20;;;;;;;11.07;7.18;;;18.80;99.50;;;;;;4595141;19;20006;-73
2023/10/13 01:52:03;;;;;;;12.07;8.18;;;18.80;99.50;;;;;;4595278;19;20351;-73
2023/10/13 01:53:39;;;;;;;12.52;7.78;;;18.80;99.40;;;;;;4595097;19;20023;-73
2023/10/13 01:55:14;;;;;;;11.10;7.45;;;18.80;99.40;;;;;;4594954;19;20061;-73
2023/10/13 01:56:48;;;;;;;13.93;8.85;;;18.80;99.40;;;;;;4595903;19;19998;-73
2023/10/13 01:58:26;;;;;;;13.00;8.73;;;18.80;99.30;;;;;;4595449;19;20010;-73
2023/10/13 02:00:09;;;;;;;13.18;9.65;;;18.80;99.20;;;;;;4596282;19;20043;-73
2023/10/13 02:01:44;;;;;;;13.70;9.30;;;18.70;99.20;;;;;;4596501;19;20519;-73
2023/10/13 02:03:21;;;;;;;14.73;9.43;;;18.70;99.30;;;;;;4596150;19;20007;-73
2023/10/13 02:05:00;;;;;;;14.43;8.98;;;18.70;99.10;;;;;;4594546;19;20003;-73
2023/10/13 02:06:39;;;;;;;12.55;9.20;;;18.70;99.10;;;;;;4595015;19;20438;-73
2023/10/13 02:08:25;;;;;;;13.35;8.73;;;18.70;99.10;;;;;;4594009;19;20011;-73
2023/10/13 02:09:59;;;;;;;15.30;9.20;;;18.70;99.10;;;;;;4594769;19;20006;-73
2023/10/13 02:11:33;;;;;;;10.07;7.63;;;18.70;99.10;;;;;;4595787;19;19998;-73
2023/10/13 02:13:17;;;;;;;12.45;8.38;;;18.70;99.20;;;;;;4594684;19;20006;-73
2023/10/13 02:14:52;;;;;;;11.38;7.50;;;18.70;99.10;;;;;;4595823;19;19998;-73
2023/10/13 02:16:26;;;;;;;11.15;7.53;;;18.70;99.10;;;;;;4596173;19;20302;-73
2023/10/13 02:18:01;;;;;;;11.68;8.00;;;18.60;99.00;;;;;;4595963;19;20006;-73
2023/10/13 02:19:35;;;;;;;9.93;6.75;;;18.70;98.90;;;;;;4593870;19;20015;-74
2023/10/13 02:21:15;;;;;;;9.55;6.78;;;18.60;98.90;;;;;;4595769;19;20027;-73
2023/10/13 02:22:51;;;;;;;12.10;6.78;;;18.60;99.00;;;;;;4596109;19;20438;-73
2023/10/13 02:24:29;;;;;;;9.52;6.50;;;18.60;99.00;;;;;;4594842;19;20070;-73
2023/10/13 02:26:11;;;;;;;8.02;5.35;;;18.60;98.90;;;;;;4594382;19;20002;-73
2023/10/13 02:27:58;;;;;;;8.85;6.18;;;18.60;98.90;;;;;;4594483;19;20359;-73
2023/10/13 02:29:39;;;;;;;8.68;6.05;;;18.60;98.80;;;;;;4594392;19;20031;-73
2023/10/13 02:31:13;;;;;;;10.25;6.40;;;18.60;98.80;;;;;;4595675;19;20006;-72
2023/10/13 02:32:48;;;;;;;8.82;5.60;;;18.60;98.80;;;;;;4595873;19;20006;-73
2023/10/13 02:34:24;;;;;;;8.55;6.47;;;18.60;98.80;;;;;;4595785;19;20061;-72
2023/10/13 02:36:01;;;;;;;9.43;5.88;;;18.60;98.70;;;;;;4595711;19;20003;-73
2023/10/13 02:37:43;;;;;;;9.07;5.60;;;18.60;98.70;;;;;;4594514;19;20357;-73
2023/10/13 02:39:24;;;;;;;8.18;5.40;;;18.60;98.60;;;;;;4594237;19;20119;-73
2023/10/13 02:41:28;;;;;;;10.05;7.22;;;18.60;98.60;;;;;;4594295;19;20011;-73
2023/10/13 02:43:06;;;;;;;8.13;5.88;;;18.50;98.50;;;;;;4593870;19;20006;-73
2023/10/13 02:44:44;;;;;;;8.65;6.05;;;18.50;98.40;;;;;;4594037;19;20335;-73
2023/10/13 02:46:29;;;;;;;8.65;5.70;;;18.50;98.50;;;;;;4595615;19;20489;-73
2023/10/13 02:48:13;;;;;;;11.10;6.97;;;18.50;98.60;;;;;;4593509;19;20017;-73
2023/10/13 02:49:49;;;;;;;11.52;7.20;;;18.50;98.60;;;;;;4595268;19;20019;-73
2023/10/13 02:51:44;;;;;;;11.73;7.53;;;18.50;98.60;;;;;;4594127;19;20003;-73
2023/10/13 02:53:19;;;;;;;12.05;7.47;;;18.50;98.60;;;;;;4595192;19;20013;-73
2023/10/13 02:54:52;;;;;;;10.90;7.25;;;18.50;98.50;;;;;;4595309;19;20002;-73
2023/10/13 02:56:27;;;;;;;12.98;8.13;;;18.50;98.50;;;;;;4595269;19;20030;-73
2023/10/13 02:58:04;;;;;;;11.35;7.80;;;18.50;98.60;;;;;;4594581;19;20002;-73
2023/10/13 02:59:46;;;;;;;11.48;7.75;;;18.50;98.70;;;;;;4595182;19;20005;-73
2023/10/13 03:01:21;;;;;;;13.15;8.43;;;18.50;98.70;;;;;;4595264;19;20006;-72
2023/10/13 03:03:01;;;;;;;14.30;8.23;;;18.50;98.70;;;;;;4594919;19;20078;-73
2023/10/13 03:04:38;;;;;;;13.02;8.25;;;18.50;98.70;;;;;;4593852;19;20018;-73
2023/10/13 03:06:13;;;;;;;15.38;8.45;;;18.50;98.70;;;;;;4594873;19;20013;-73
2023/10/13 03:07:50;;;;;;;11.93;8.30;;;18.50;98.60;;;;;;4594662;19;20006;-73
2023/10/13 03:09:24;;;;;;;12.75;7.72;;;18.50;98.60;;;;;;4595045;19;20007;-73
2023/10/13 03:10:59;;;;;;;12.05;8.65;;;18.50;98.50;;;;;;4594980;19;20003;-73
2023/10/13 03:12:37;;;;;;;13.88;9.00;;;18.50;98.60;;;;;;4594721;19;20010;-73
2023/10/13 03:14:24;;;;;;;11.25;7.97;;;18.50;98.40;;;;;;4593257;19;20029;-73
2023/10/13 03:15:59;;;;;;;11.95;7.75;;;18.50;98.40;;;;;;4593320;19;20326;-73
2023/10/13 03:17:34;;;;;;;11.88;7.88;;;18.50;98.40;;;;;;4594368;19;20474;-73
2023/10/13 03:19:09;;;;;;;12.40;9.27;;;18.40;98.40;;;;;;4593000;19;20011;-73
2023/10/13 03:20:43;;;;;;;13.48;8.70;;;18.50;98.50;;;;;;4593491;19;20017;-73
2023/10/13 03:22:30;;;;;;;11.57;8.43;;;18.50;98.40;;;;;;4594305;19;20023;-73
2023/10/13 03:24:06;;;;;;;12.82;7.95;;;18.40;98.30;;;;;;4594024;19;20359;-73
2023/10/13 03:25:49;;;;;;;13.38;8.40;;;18.40;98.20;;;;;;4594519;19;20023;-73
2023/10/13 03:27:39;;;;;;;14.23;8.93;;;18.40;98.20;;;;;;4593360;19;20006;-73
2023/10/13 03:29:21;;;;;;;12.27;8.82;;;18.40;98.10;;;;;;4591890;19;20006;-73
2023/10/13 03:31:01;;;;;;;12.45;8.25;;;18.40;98.10;;;;;;4593245;19;20006;-73
2023/10/13 03:32:42;;;;;;;13.27;8.23;;;18.40;98.10;;;;;;4594080;19;20013;-73
2023/10/13 03:34:19;;;;;;;11.73;8.20;;;18.40;98.10;;;;;;4594386;19;20080;-73
2023/10/13 03:35:54;;;;;;;11.73;8.15;;;18.40;98.00;;;;;;4594289;19;20006;-73
2023/10/13 03:37:40;;;;;;;14.20;8.85;;;18.40;98.00;;;;;;4594254;19;20050;-73
2023/10/13 03:39:14;;;;;;;10.82;8.73;;;18.40;98.00;;;;;;4592734;19;20510;-73
2023/10/13 03:40:56;;;;;;;12.00;8.80;;;18.40;98.00;;;;;;4594136;19;20315;-73
2023/10/13 03:42:32;;;;;;;11.75;7.60;;;18.40;98.00;;;;;;4594030;19;20327;-73
2023/10/13 03:44:17;;;;;;;11.13;7.18;;;18.40;98.00;;;;;;4592347;19;20005;-73
2023/10/13 03:46:01;;;;;;;11.15;7.43;;;18.40;98.00;;;;;;4593904;19;20498;-74
2023/10/13 03:47:38;;;;;;;11.25;6.93;;;18.50;98.00;;;;;;4592681;19;20045;-73
2023/10/13 03:49:13;;;;;;;10.30;6.88;;;18.50;97.80;;;;;;4592261;19;20010;-73
2023/10/13 03:50:57;;;;;;;9.13;7.38;;;18.50;97.60;;;;;;4593886;19;20020;-72
2023/10/13 03:52:36;;;;;;;10.15;8.13;;;16.30;99.00;;;;;;4592840;19;20011;-72
2023/10/13 03:54:10;;;;;;;10.23;7.45;;;14.80;99.90;;;;;;4593540;19;20320;-73
2023/10/13 03:55:48;;;;;;;10.07;7.10;;;14.10;99.90;;;;;;4593744;19;20002;-73
2023/10/13 03:57:27;;;;;;;10.07;7.93;;;13.70;99.90;;;;;;4593839;19;19999;-73
2023/10/13 03:59:09;;;;;;;12.15;9.05;;;13.40;99.90;;;;;;4591266;19;20018;-73
2023/10/13 04:00:44;;;;;;;11.55;8.68;;;13.20;99.90;;;;;;4593801;19;20017;-72
2023/10/13 04:02:21;;;;;;;12.17;9.30;;;13.10;99.90;;;;;;4593750;19;20019;-73
2023/10/13 04:04:15;;;;;;;13.30;9.80;;;13.00;99.90;;;;;;4590877;19;20013;-73
2023/10/13 04:06:06;;;;;;;12.67;9.07;;;12.90;99.90;;;;;;4593942;19;20418;-72
2023/10/13 04:16:51;;;;;;;13.70;10.17;;;12.60;99.90;;;;;;4590909;19;20044;-74
2023/10/13 04:20:32;;;;;;;17.10;12.10;;;13.50;99.90;;;;;;4591050;19;20045;-73
2023/10/13 04:22:20;;;;;;;20.27;12.90;;;14.40;99.90;;;;;;4591369;19;20016;-74
2023/10/13 04:26:21;;;;;;;17.10;11.30;;;15.60;99.90;;;;;;4586034;19;20474;-72
2023/10/13 04:28:34;;;;;;;13.00;9.50;;;16.10;99.90;;;;;;4569409;19;20008;-74
2023/10/13 04:30:38;;;;;;;14.32;9.95;;;16.50;99.90;;;;;;4588811;19;20022;-73
2023/10/13 04:32:33;;;;;;;12.55;8.10;;;16.80;99.90;;;;;;4590570;19;19998;-73
2023/10/13 04:34:15;;;;;;;13.75;8.60;;;17.00;99.90;;;;;;4589406;19;20030;-72
2023/10/13 04:35:58;;;;;;;13.25;7.70;;;17.20;99.90;;;;;;4590821;19;20002;-73
2023/10/13 04:37:48;;;;;;;11.73;7.65;;;17.30;99.90;;;;;;4591016;19;20081;-73
2023/10/13 04:39:35;;;;;;;10.05;7.35;;;17.40;99.90;;;;;;4590615;19;20011;-73
2023/10/13 04:41:22;;;;;;;12.00;8.32;;;17.50;99.90;;;;;;4590712;19;19998;-73
2023/10/13 04:43:04;;;;;;;11.73;7.88;;;17.60;99.90;;;;;;4590919;19;20415;-73
2023/10/13 04:44:48;;;;;;;14.07;9.45;;;17.70;99.90;;;;;;4590284;19;20086;-73
2023/10/13 04:46:39;;;;;;;14.32;9.45;;;17.70;99.90;;;;;;4590446;19;20078;-73
2023/10/13 04:50:00;;;;;;;11.40;8.32;;;17.80;99.90;;;;;;4590764;19;20023;-73
2023/10/13 04:51:49;;;;;;;13.13;10.13;;;17.90;99.90;;;;;;4590377;19;20002;-73
2023/10/13 04:53:33;;;;;;;18.10;10.95;;;17.90;99.90;;;;;;4591257;19;20013;-76
2023/10/13 04:59:35;;;;;;;10.23;6.50;;;18.10;99.90;;;;;;4589509;19;20051;-73
2023/10/13 05:02:00;;;;;;;8.30;5.85;;;18.10;99.90;;;;;;4590209;19;20019;-73
2023/10/13 05:05:30;;;;;;;12.77;7.28;;;18.30;99.90;;;;;;4589191;19;20014;-74
2023/10/13 05:45:24;;;;;;;9.25;7.13;;;19.90;98.20;;;;;;4588326;19;20105;-73
2023/10/13 05:50:57;;;;;;;10.82;7.32;;;20.00;98.20;;;;;;4589257;19;20011;-72
2023/10/13 06:28:41;;;;;;;23.63;15.93;;;19.80;98.70;;;;;;4592317;19;20059;-73
2023/10/13 06:30:17;;;;;;;20.83;13.85;;;19.70;98.90;;;;;;4593560;19;20025;-73
2023/10/13 06:31:51;;;;;;;18.85;11.63;;;19.70;99.00;;;;;;4592978;19;20320;-73
2023/10/13 06:33:28;;;;;;;18.38;11.57;;;19.70;99.00;;;;;;4593033;19;19999;-73
2023/10/13 06:35:07;;;;;;;20.23;11.45;;;19.60;99.10;;;;;;4593255;19;20017;-73
2023/10/13 06:36:42;;;;;;;19.13;10.73;;;19.60;99.20;;;;;;4593253;19;20085;-73
2023/10/13 06:38:20;;;;;;;23.13;11.95;;;19.60;99.40;;;;;;4592303;19;20011;-73
2023/10/13 06:40:05;;;;;;;21.90;12.38;;;19.60;99.50;;;;;;4593260;19;20006;-73
2023/10/13 06:41:40;;;;;;;19.02;11.02;;;19.60;99.70;;;;;;4593303;19;20027;-73
2023/10/13 06:43:23;;;;;;;21.88;12.18;;;19.50;99.80;;;;;;4593117;19;20419;-73
2023/10/13 06:45:08;;;;;;;24.38;12.85;;;19.50;99.90;;;;;;4592161;19;20010;-73
2023/10/13 06:46:43;;;;;;;25.60;13.30;;;19.50;99.90;;;;;;4592908;19;20139;-73
2023/10/13 06:48:19;;;;;;;20.10;11.65;;;19.50;99.90;;;;;;4592457;19;20006;-73
2023/10/13 06:49:56;;;;;;;21.98;11.68;;;19.50;99.90;;;;;;4592761;19;20006;-73
2023/10/13 06:51:37;;;;;;;20.67;11.65;;;19.40;99.90;;;;;;4592791;19;19998;-73
2023/10/13 06:53:12;;;;;;;24.23;13.27;;;19.40;99.90;;;;;;4593117;19;20017;-72
2023/10/13 06:54:52;;;;;;;20.38;11.90;;;19.40;99.90;;;;;;4593060;19;20028;-73
2023/10/13 06:56:28;;;;;;;20.88;13.82;;;19.50;99.90;;;;;;4594527;19;20028;-73
2023/10/13 06:58:02;;;;;;;21.27;12.45;;;19.50;99.90;;;;;;4594597;19;20011;-72
2023/10/13 06:59:39;;;;;;;20.25;13.48;;;19.60;99.90;;;;;;4595267;19;20011;-73
2023/10/13 07:01:15;;;;;;;24.80;14.18;;;19.60;99.90;;;;;;4594911;19;20003;-74
2023/10/13 07:02:51;;;;;;;20.83;12.40;;;19.60;99.90;;;;;;4594941;19;20006;-72
2023/10/13 07:04:27;;;;;;;22.33;13.23;;;19.60;99.90;;;;;;4594622;19;20006;-72
2023/10/13 07:06:01;;;;;;;20.70;12.57;;;19.60;99.90;;;;;;4593537;19;20006;-73
2023/10/13 07:07:36;;;;;;;18.85;12.23;;;19.60;99.90;;;;;;4594453;19;20002;-73
2023/10/13 07:09:39;;;;;;;29.17;19.00;;;19.70;99.90;;;;;;4593194;19;20305;-73
2023/10/13 07:11:13;;;;;;;30.52;22.17;;;19.70;99.90;;;;;;4594517;19;20006;-73
2023/10/13 07:12:49;;;;;;;36.03;25.58;;;19.60;99.90;;;;;;4593455;19;20007;-73
2023/10/13 07:14:25;;;;;;;37.58;26.67;;;19.60;99.90;;;;;;4594779;19;20010;-73
2023/10/13 07:16:05;;;;;;;31.05;21.75;;;19.60;99.90;;;;;;4594544;19;20007;-73
2023/10/13 07:17:40;;;;;;;26.27;18.27;;;19.60;99.90;;;;;;4593698;19;20066;-72
2023/10/13 07:19:17;;;;;;;24.30;16.65;;;19.60;99.90;;;;;;4592921;19;20424;-73
2023/10/13 07:20:50;;;;;;;23.70;16.25;;;19.60;99.90;;;;;;4594771;19;19999;-73
2023/10/13 07:22:27;;;;;;;19.33;14.95;;;19.50;99.90;;;;;;4594428;19;19999;-72
2023/10/13 07:24:11;;;;;;;23.67;15.25;;;19.50;99.90;;;;;;4593256;19;20006;-73
2023/10/13 07:25:55;;;;;;;18.52;14.35;;;19.50;99.90;;;;;;4594197;19;20003;-73
2023/10/13 07:27:30;;;;;;;18.98;13.90;;;19.50;99.90;;;;;;4593328;19;20002;-72
2023/10/13 07:29:08;;;;;;;16.55;12.85;;;19.50;99.90;;;;;;4592933;19;20017;-73
2023/10/13 07:32:33;;;;;;;16.77;13.73;;;19.40;99.90;;;;;;4593005;19;20045;-73
2023/10/13 07:34:26;;;;;;;18.08;13.52;;;19.40;99.90;;;;;;4594181;19;20431;-73
2023/10/13 07:38:13;;;;;;;26.13;18.30;;;19.40;99.90;;;;;;4590843;19;20011;-73
2023/10/13 07:39:50;;;;;;;30.10;19.95;;;19.40;99.90;;;;;;4594067;19;20009;-75
2023/10/13 07:41:30;;;;;;;36.60;23.10;;;19.30;99.90;;;;;;4593199;19;20374;-73
2023/10/13 07:43:10;;;;;;;54.67;30.55;;;19.30;99.90;;;;;;4594604;19;20006;-73
2023/10/13 07:44:49;;;;;;;69.95;38.60;;;19.30;99.90;;;;;;4593515;19;20006;-73
2023/10/13 07:46:31;;;;;;;64.43;36.90;;;19.30;99.90;;;;;;4594237;19;20007;-73
2023/10/13 07:48:28;;;;;;;59.22;34.80;;;19.40;99.90;;;;;;4593689;19;20092;-73
2023/10/13 07:50:06;;;;;;;46.45;27.23;;;19.30;99.90;;;;;;4592699;19;20017;-73
2023/10/13 07:51:51;;;;;;;35.92;21.35;;;19.30;99.90;;;;;;4592629;19;20023;-72
2023/10/13 07:53:28;;;;;;;26.90;16.92;;;19.30;99.90;;;;;;4594032;19;20022;-73
2023/10/13 07:55:13;;;;;;;23.25;12.63;;;19.40;99.90;;;;;;4593930;19;20102;-73
2023/10/13 07:56:51;;;;;;;18.30;11.57;;;19.40;99.90;;;;;;4594172;19;20013;-73
2023/10/13 07:58:26;;;;;;;16.65;12.27;;;19.40;99.90;;;;;;4591819;19;20062;-73
2023/10/13 08:02:15;;;;;;;14.88;11.07;;;19.40;99.90;;;;;;4593176;19;20336;-74
2023/10/13 08:04:04;;;;;;;14.63;10.10;;;19.40;99.90;;;;;;4594020;19;20006;-74
2023/10/13 08:07:30;;;;;;;13.15;9.35;;;19.40;99.90;;;;;;4593883;19;20031;-72
2023/10/13 08:09:09;;;;;;;14.02;9.70;;;19.40;99.90;;;;;;4592377;19;20090;-73
2023/10/13 08:10:45;;;;;;;14.35;8.73;;;19.40;99.90;;;;;;4593413;19;20023;-74
2023/10/13 08:12:26;;;;;;;12.43;8.13;;;19.40;99.90;;;;;;4592230;19;20007;-74
2023/10/13 08:14:45;;;;;;;12.32;7.13;;;19.40;99.90;;;;;;4593508;19;20007;-73
2023/10/13 08:16:08;;;;;;;10.50;6.35;;;19.40;99.90;;;;;;4591927;19;20044;-73
2023/10/13 08:17:44;;;;;;;12.05;6.22;;;19.40;99.90;;;;;;4593376;19;20011;-73
2023/10/13 08:21:22;;;;;;;9.80;5.95;;;19.40;99.90;;;;;;4592467;19;20015;-73
2023/10/13 08:23:13;;;;;;;8.27;4.95;;;19.40;99.90;;;;;;4592973;19;20034;-74
2023/10/13 08:28:45;;;;;;;12.25;6.28;;;19.40;99.90;;;;;;4592594;19;20030;-73
2023/10/13 08:31:41;;;;;;;13.75;6.97;;;19.40;99.90;;;;;;4593121;19;19999;-75
2023/10/13 08:33:22;;;;;;;13.50;6.60;;;19.40;99.90;;;;;;4593382;19;20432;-74
2023/10/13 08:36:38;;;;;;;8.68;6.07;;;19.40;99.90;;;;;;4592676;19;20082;-73
2023/10/13 08:38:17;;;;;;;12.65;6.47;;;19.30;99.90;;;;;;4592741;19;20007;-74
2023/10/13 08:41:38;;;;;;;14.40;7.05;;;19.30;99.90;;;;;;4591676;19;20070;-73
2023/10/13 08:43:12;;;;;;;9.48;5.82;;;19.30;99.90;;;;;;4591718;19;20031;-73
2023/10/13 08:44:52;;;;;;;11.20;5.43;;;19.30;99.90;;;;;;4590774;19;20002;-74
2023/10/13 08:46:28;;;;;;;10.98;6.18;;;19.30;99.90;;;;;;4592286;19;20317;-74
2023/10/13 08:49:52;;;;;;;10.20;5.93;;;19.30;99.90;;;;;;4591101;19;20012;-74
2023/10/13 08:51:43;;;;;;;11.65;5.82;;;19.30;99.90;;;;;;4591395;19;20005;-74
2023/10/13 08:56:00;;;;;;;11.07;6.38;;;19.30;99.90;;;;;;4591169;19;20365;-74
2023/10/13 08:59:22;;;;;;;10.73;5.15;;;19.30;99.90;;;;;;4590035;19;20006;-73
2023/10/13 09:01:11;;;;;;;11.20;4.57;;;19.30;99.90;;;;;;4590182;19;20364;-73
2023/10/13 09:04:44;;;;;;;8.57;4.90;;;19.30;99.90;;;;;;4589729;19;20013;-74
2023/10/13 09:06:22;;;;;;;9.75;5.25;;;19.30;99.90;;;;;;4590166;19;20430;-74
2023/10/13 09:08:07;;;;;;;9.38;6.07;;;19.20;99.90;;;;;;4589718;19;20078;-73
2023/10/13 09:10:32;;;;;;;9.10;6.75;;;19.20;99.90;;;;;;4590048;19;19998;-73
2023/10/13 09:12:04;;;;;;;10.50;5.57;;;19.20;99.90;;;;;;4589661;19;20011;-73
2023/10/13 09:13:44;;;;;;;10.52;5.82;;;19.20;99.90;;;;;;4590079;19;20086;-73
2023/10/13 09:15:19;;;;;;;11.30;6.40;;;19.20;99.90;;;;;;4590097;19;20010;-72
2023/10/13 09:17:07;;;;;;;11.63;5.72;;;19.20;99.90;;;;;;4589545;19;20017;-72
2023/10/13 09:18:46;;;;;;;11.38;6.07;;;19.20;99.90;;;;;;4588854;19;20409;-72
2023/10/13 09:20:42;;;;;;;13.80;8.00;;;19.10;99.90;;;;;;4589803;19;20033;-72
2023/10/13 09:22:37;;;;;;;15.38;9.55;;;19.10;99.90;;;;;;4589735;19;20478;-73
2023/10/13 09:24:29;;;;;;;19.38;10.77;;;19.10;99.90;;;;;;4589724;19;19998;-73
2023/10/13 09:26:12;;;;;;;14.60;9.10;;;19.10;99.90;;;;;;4590012;19;20002;-72
2023/10/13 09:27:54;;;;;;;14.32;7.65;;;19.10;99.90;;;;;;4569894;19;20006;-71
2023/10/13 09:29:56;;;;;;;13.55;7.70;;;19.10;99.90;;;;;;4590094;19;20013;-73
2023/10/13 09:31:32;;;;;;;14.48;8.90;;;19.10;99.90;;;;;;4589430;19;20006;-72
2023/10/13 09:33:15;;;;;;;19.10;10.13;;;19.10;99.90;;;;;;4589806;19;20070;-72
2023/10/13 09:35:43;;;;;;;15.52;9.75;;;19.10;99.90;;;;;;4589570;19;20315;-72
2023/10/13 09:37:24;;;;;;;17.35;9.45;;;19.10;99.90;;;;;;4580511;19;20011;-72
2023/10/13 09:39:29;;;;;;;15.20;7.95;;;19.10;99.90;;;;;;4587993;19;20113;-72
2023/10/13 09:41:18;;;;;;;11.52;7.18;;;19.10;99.90;;;;;;4589716;19;20356;-72
2023/10/13 09:42:59;;;;;;;11.20;5.57;;;19.00;99.90;;;;;;4587875;19;20006;-71
2023/10/13 09:44:34;;;;;;;10.75;6.47;;;19.00;99.90;;;;;;4591304;19;20441;-72
2023/10/13 09:46:15;;;;;;;11.73;6.28;;;19.10;99.90;;;;;;4590597;19;20007;-70
2023/10/13 09:47:52;;;;;;;13.77;6.90;;;19.10;99.90;;;;;;4590047;19;20031;-72
2023/10/13 09:49:46;;;;;;;12.52;7.30;;;19.10;99.90;;;;;;4590510;19;20423;-72
2023/10/13 09:51:21;;;;;;;11.07;5.93;;;19.10;99.90;;;;;;4590278;19;20031;-72
2023/10/13 09:52:58;;;;;;;12.30;5.55;;;19.10;99.90;;;;;;4591828;19;20288;-72
2023/10/13 09:54:36;;;;;;;11.60;5.38;;;19.20;99.90;;;;;;4590371;19;20080;-71
2023/10/13 09:56:27;;;;;;;17.95;7.18;;;19.20;99.90;;;;;;4590097;19;20032;-71
2023/10/13 09:58:17;;;;;;;13.02;6.40;;;19.30;99.90;;;;;;4589810;19;20537;-71
2023/10/13 09:59:53;;;;;;;14.18;7.78;;;19.30;99.90;;;;;;4590427;19;20455;-71
2023/10/13 10:01:37;;;;;;;12.32;6.60;;;19.30;99.90;;;;;;4593387;19;20097;-71
2023/10/13 10:03:29;;;;;;;14.70;7.78;;;19.40;99.90;;;;;;4596257;19;20007;-71
2023/10/13 10:05:21;;;;;;;10.88;6.80;;;19.30;99.90;;;;;;4595209;19;20014;-71
2023/10/13 10:06:56;;;;;;;11.68;6.32;;;19.30;99.90;;;;;;4595003;19;20006;-72
2023/10/13 10:08:35;;;;;;;11.90;6.70;;;19.40;99.90;;;;;;4594582;19;20022;-71
2023/10/13 10:10:09;;;;;;;13.23;6.30;;;19.40;99.90;;;;;;4594663;19;20006;-71
2023/10/13 10:11:56;;;;;;;12.48;5.75;;;19.40;99.90;;;;;;4594527;19;20003;-71
2023/10/13 10:14:17;;;;;;;14.07;5.60;;;19.40;99.90;;;;;;4595884;19;19998;-71
2023/10/13 10:15:52;;;;;;;9.10;5.47;;;19.40;99.90;;;;;;4593804;19;20046;-71
2023/10/13 10:17:30;;;;;;;11.98;6.18;;;19.50;99.90;;;;;;4593601;19;20002;-71
2023/10/13 10:19:08;;;;;;;12.82;6.80;;;19.50;99.90;;;;;;4591882;19;20020;-71
2023/10/13 10:20:44;;;;;;;15.35;7.70;;;19.50;99.90;;;;;;4593228;19;20010;-71
2023/10/13 10:22:44;;;;;;;13.95;9.00;;;19.50;99.90;;;;;;4593552;19;20339;-71
2023/10/13 10:24:33;;;;;;;16.67;8.60;;;19.40;99.90;;;;;;4593445;19;20006;-71
2023/10/13 10:26:15;;;;;;;18.38;9.23;;;19.40;99.90;;;;;;4593633;19;20003;-72
2023/10/13 10:28:00;;;;;;;15.48;8.02;;;19.40;99.90;;;;;;4593075;19;20007;-72
2023/10/13 10:29:34;;;;;;;20.70;9.57;;;19.40;99.90;;;;;;4593624;19;20014;-72
2023/10/13 10:31:19;;;;;;;15.90;8.10;;;19.50;99.90;;;;;;4593158;19;20015;-72
2023/10/13 10:33:11;;;;;;;15.50;8.95;;;19.40;99.90;;;;;;4593148;19;20003;-72
2023/10/13 10:34:47;;;;;;;16.92;8.48;;;19.40;99.90;;;;;;4593608;19;20097;-72
2023/10/13 10:36:30;;;;;;;13.30;8.02;;;19.40;99.90;;;;;;4593341;19;20003;-72
2023/10/13 10:38:24;;;;;;;11.07;6.90;;;19.40;99.90;;;;;;4592679;19;20011;-72
2023/10/13 10:39:59;;;;;;;15.70;7.30;;;19.40;99.90;;;;;;4593295;19;20006;-72
2023/10/13 10:41:51;;;;;;;13.35;7.28;;;19.40;99.90;;;;;;4592836;19;20011;-72
2023/10/13 10:43:41;;;;;;;17.15;8.00;;;19.40;99.90;;;;;;4593391;19;20123;-72
2023/10/13 10:45:21;;;;;;;18.80;8.85;;;19.40;99.90;;;;;;4591696;19;20042;-72
2023/10/13 10:47:01;;;;;;;14.60;7.82;;;19.40;99.90;;;;;;4593226;19;20039;-72
2023/10/13 10:48:38;;;;;;;14.18;8.20;;;19.40;99.90;;;;;;4591942;19;20065;-72
2023/10/13 10:50:26;;;;;;;15.90;8.15;;;19.40;99.90;;;;;;4592846;19;20007;-72
2023/10/13 10:52:06;;;;;;;14.88;8.18;;;19.40;99.90;;;;;;4593947;19;20014;-70
2023/10/13 10:53:44;;;;;;;18.67;10.73;;;19.30;99.90;;;;;;4594164;19;20577;-72
2023/10/13 10:55:22;;;;;;;17.13;8.90;;;19.30;99.90;;;;;;4593722;19;20489;-71
2023/10/13 10:57:04;;;;;;;15.27;8.02;;;19.40;99.90;;;;;;4594842;19;20024;-71
2023/10/13 10:58:47;;;;;;;13.85;8.13;;;19.30;99.90;;;;;;4592820;19;20011;-72
2023/10/13 11:00:26;;;;;;;15.20;9.25;;;19.30;99.90;;;;;;4594814;19;20315;-72
2023/10/13 11:02:00;;;;;;;15.18;8.73;;;19.30;99.90;;;;;;4594945;19;20448;-71
2023/10/13 11:03:38;;;;;;;12.98;9.10;;;19.40;99.90;;;;;;4594961;19;20006;-72